CheckWX is a tool to help pilots better visualize weather data.  It is not intended as a substitute for an official pre-flight weather briefing.

06:38:29 UTC

PTYA TAF
Yap International Airport
Yap Island, Federated States of Micronesia
PTYA 260520Z 2606/2706 09008KT P6SM VCSH SCT016 BKN130 FM261100 10010KT P6SM VCSH SCT015 SCT030 BKN110

Jun-26@
06:00 UTC

Jun-26 @ 06:00 UTC

Jun-26@
11:00 UTC

Jun-26 @ 11:00 UTC

PTYA 260520Z 2606/2706 09008KT P6SM VCSH SCT016 BKN130
Wind
  • 090° at 8 KTS
Cloud Levels
  • Scattered at 1,600' AGL
  • Broken at 13,000' AGL

Jun-26@
11:00 UTC

Jun-26 @ 11:00 UTC

Jun-27@
06:00 UTC

Jun-27 @ 06:00 UTC

FM261100 10010KT P6SM VCSH SCT015 SCT030 BKN110

From

From Standard forecast or significant change

Wind
  • 100° at 10 KTS
Cloud Levels
  • Scattered at 1,500' AGL
  • Scattered at 3,000' AGL
  • Broken at 11,000' AGL